sensor_id;sensor_type;location;lat;lon;timestamp;pressure;altitude;pressure_sealevel;temperature;humidity
43430;BME280;29028;43.234;27.896;2022-11-20T05:02:11;99658.31;;;18.43;100.00
43430;BME280;29028;43.234;27.896;2022-11-20T05:02:33;99650.69;;;18.45;100.00
43430;BME280;29028;43.234;27.896;2022-11-20T05:02:54;99659.97;;;18.44;100.00
43430;BME280;29028;43.234;27.896;2022-11-20T05:03:15;99654.19;;;18.40;100.00
43430;BME280;29028;43.234;27.896;2022-11-20T05:03:36;99653.38;;;18.40;100.00
43430;BME280;29028;43.234;27.896;2022-11-20T05:03:57;99650.63;;;18.40;100.00
43430;BME280;29028;43.234;27.896;2022-11-20T05:04:18;99650.63;;;18.40;100.00
43430;BME280;29028;43.234;27.896;2022-11-20T05:04:39;99654.44;;;18.39;100.00
43430;BME280;29028;43.234;27.896;2022-11-20T05:05:00;99655.28;;;18.39;100.00
43430;BME280;29028;43.234;27.896;2022-11-20T05:05:22;99648.50;;;18.42;100.00
43430;BME280;29028;43.234;27.896;2022-11-20T05:05:43;99649.84;;;18.39;100.00
43430;BME280;29028;43.234;27.896;2022-11-20T05:06:05;99648.44;;;18.37;100.00
43430;BME280;29028;43.234;27.896;2022-11-20T05:06:26;99626.22;;;18.28;100.00
43430;BME280;29028;43.234;27.896;2022-11-20T05:06:49;99635.59;;;18.37;100.00
43430;BME280;29028;43.234;27.896;2022-11-20T05:07:10;99643.13;;;18.30;100.00
43430;BME280;29028;43.234;27.896;2022-11-20T05:07:31;99640.75;;;18.34;100.00
43430;BME280;29028;43.234;27.896;2022-11-20T05:07:52;99639.66;;;18.35;100.00
43430;BME280;29028;43.234;27.896;2022-11-20T05:08:13;99630.69;;;18.34;100.00
43430;BME280;29028;43.234;27.896;2022-11-20T05:08:35;99635.19;;;18.29;100.00
43430;BME280;29028;43.234;27.896;2022-11-20T05:08:55;99634.63;;;18.27;100.00
43430;BME280;29028;43.234;27.896;2022-11-20T05:09:16;99648.38;;;18.32;100.00
43430;BME280;29028;43.234;27.896;2022-11-20T05:09:37;99642.56;;;18.28;100.00
43430;BME280;29028;43.234;27.896;2022-11-20T05:09:59;99643.72;;;18.32;100.00
43430;BME280;29028;43.234;27.896;2022-11-20T05:10:20;99643.38;;;18.29;100.00
43430;BME280;29028;43.234;27.896;2022-11-20T05:10:40;99646.63;;;18.26;100.00
43430;BME280;29028;43.234;27.896;2022-11-20T05:11:02;99638.13;;;18.22;100.00
43430;BME280;29028;43.234;27.896;2022-11-20T05:11:23;99643.97;;;18.31;100.00
43430;BME280;29028;43.234;27.896;2022-11-20T05:11:45;99648.13;;;18.33;100.00
43430;BME280;29028;43.234;27.896;2022-11-20T05:12:07;99637.22;;;18.33;100.00
43430;BME280;29028;43.234;27.896;2022-11-20T05:12:28;99653.19;;;18.30;100.00
43430;BME280;29028;43.234;27.896;2022-11-20T05:12:49;99640.41;;;18.30;100.00
43430;BME280;29028;43.234;27.896;2022-11-20T05:13:10;99629.13;;;18.22;100.00
43430;BME280;29028;43.234;27.896;2022-11-20T05:13:32;99635.41;;;18.22;100.00
43430;BME280;29028;43.234;27.896;2022-11-20T05:13:53;99638.94;;;18.23;100.00
43430;BME280;29028;43.234;27.896;2022-11-20T05:14:14;99638.94;;;18.23;100.00
43430;BME280;29028;43.234;27.896;2022-11-20T05:14:35;99639.25;;;18.26;100.00
43430;BME280;29028;43.234;27.896;2022-11-20T05:14:57;99640.50;;;18.19;100.00
43430;BME280;29028;43.234;27.896;2022-11-20T05:15:17;99632.03;;;18.15;100.00
43430;BME280;29028;43.234;27.896;2022-11-20T05:15:39;99643.59;;;18.22;100.00
43430;BME280;29028;43.234;27.896;2022-11-20T05:16:03;99634.50;;;18.17;100.00
43430;BME280;29028;43.234;27.896;2022-11-20T05:16:25;99635.06;;;18.19;100.00
43430;BME280;29028;43.234;27.896;2022-11-20T05:16:47;99632.16;;;18.25;100.00
43430;BME280;29028;43.234;27.896;2022-11-20T05:17:11;99645.72;;;18.20;100.00
43430;BME280;29028;43.234;27.896;2022-11-20T05:17:32;99651.47;;;18.24;100.00
43430;BME280;29028;43.234;27.896;2022-11-20T05:17:54;99645.16;;;18.18;100.00
43430;BME280;29028;43.234;27.896;2022-11-20T05:18:15;99654.41;;;18.17;100.00
43430;BME280;29028;43.234;27.896;2022-11-20T05:18:36;99643.00;;;18.20;100.00
43430;BME280;29028;43.234;27.896;2022-11-20T05:18:57;99645.47;;;18.22;100.00
43430;BME280;29028;43.234;27.896;2022-11-20T05:19:18;99651.75;;;18.22;100.00
43430;BME280;29028;43.234;27.896;2022-11-20T05:19:40;99653.41;;;18.23;100.00
43430;BME280;29028;43.234;27.896;2022-11-20T05:20:01;99661.34;;;18.25;100.00
43430;BME280;29028;43.234;27.896;2022-11-20T05:20:22;99659.16;;;18.27;100.00
43430;BME280;29028;43.234;27.896;2022-11-20T05:20:42;99663.03;;;18.31;100.00
43430;BME280;29028;43.234;27.896;2022-11-20T05:21:04;99657.59;;;18.31;100.00
43430;BME280;29028;43.234;27.896;2022-11-20T05:21:26;99660.06;;;18.32;100.00
43430;BME280;29028;43.234;27.896;2022-11-20T05:21:47;99659.28;;;18.32;100.00
43430;BME280;29028;43.234;27.896;2022-11-20T05:22:08;99659.03;;;18.33;100.00
43430;BME280;29028;43.234;27.896;2022-11-20T05:22:29;99655.22;;;18.34;100.00
43430;BME280;29028;43.234;27.896;2022-11-20T05:22:51;99657.09;;;18.34;100.00
43430;BME280;29028;43.234;27.896;2022-11-20T05:23:12;99650.00;;;18.33;100.00
43430;BME280;29028;43.234;27.896;2022-11-20T05:23:33;99657.00;;;18.29;100.00
43430;BME280;29028;43.234;27.896;2022-11-20T05:23:54;99659.47;;;18.30;100.00
43430;BME280;29028;43.234;27.896;2022-11-20T05:24:15;99658.41;;;18.31;100.00
43430;BME280;29028;43.234;27.896;2022-11-20T05:24:37;99652.94;;;18.31;100.00
43430;BME280;29028;43.234;27.896;2022-11-20T05:24:58;99653.81;;;18.32;100.00
43430;BME280;29028;43.234;27.896;2022-11-20T05:25:19;99655.69;;;18.31;100.00
43430;BME280;29028;43.234;27.896;2022-11-20T05:25:39;99655.91;;;18.30;100.00
43430;BME280;29028;43.234;27.896;2022-11-20T05:26:01;99648.50;;;18.25;100.00
43430;BME280;29028;43.234;27.896;2022-11-20T05:26:23;99660.06;;;18.32;100.00
43430;BME280;29028;43.234;27.896;2022-11-20T05:26:44;99662.56;;;18.34;100.00
43430;BME280;29028;43.234;27.896;2022-11-20T05:27:04;99665.03;;;18.35;100.00
43430;BME280;29028;43.234;27.896;2022-11-20T05:27:25;99659.91;;;18.39;100.00
43430;BME280;29028;43.234;27.896;2022-11-20T05:27:47;99662.31;;;18.35;100.00
43430;BME280;29028;43.234;27.896;2022-11-20T05:28:08;99654.38;;;18.34;100.00
43430;BME280;29028;43.234;27.896;2022-11-20T05:28:30;99660.66;;;18.34;100.00
43430;BME280;29028;43.234;27.896;2022-11-20T05:28:51;99648.13;;;18.33;100.00
43430;BME280;29028;43.234;27.896;2022-11-20T05:29:12;99661.53;;;18.40;100.00
43430;BME280;29028;43.234;27.896;2022-11-20T05:29:34;99661.22;;;18.36;100.00
43430;BME280;29028;43.234;27.896;2022-11-20T05:29:55;99651.31;;;18.30;100.00
43430;BME280;29028;43.234;27.896;2022-11-20T05:30:16;99659.59;;;18.35;100.00
43430;BME280;29028;43.234;27.896;2022-11-20T05:30:37;99654.38;;;18.34;100.00
43430;BME280;29028;43.234;27.896;2022-11-20T05:31:04;99649.53;;;18.36;100.00
43430;BME280;29028;43.234;27.896;2022-11-20T05:31:27;99657.09;;;18.34;100.00
43430;BME280;29028;43.234;27.896;2022-11-20T05:31:47;99660.16;;;18.37;100.00
43430;BME280;29028;43.234;27.896;2022-11-20T05:32:08;99660.97;;;18.38;100.00
43430;BME280;29028;43.234;27.896;2022-11-20T05:32:31;99657.41;;;18.37;100.00
43430;BME280;29028;43.234;27.896;2022-11-20T05:32:52;99660.97;;;18.38;100.00
43430;BME280;29028;43.234;27.896;2022-11-20T05:33:13;99658.25;;;18.38;100.00
43430;BME280;29028;43.234;27.896;2022-11-20T05:33:35;99657.41;;;18.37;100.00
43430;BME280;29028;43.234;27.896;2022-11-20T05:33:57;99654.44;;;18.39;99.95
43430;BME280;29028;43.234;27.896;2022-11-20T05:34:18;99657.50;;;18.42;100.00
43430;BME280;29028;43.234;27.896;2022-11-20T05:34:39;99650.41;;;18.41;99.99
43430;BME280;29028;43.234;27.896;2022-11-20T05:35:00;99655.59;;;18.43;99.67
43430;BME280;29028;43.234;27.896;2022-11-20T05:35:21;99650.41;;;18.41;99.57
43430;BME280;29028;43.234;27.896;2022-11-20T05:35:43;99654.19;;;18.40;99.68
43430;BME280;29028;43.234;27.896;2022-11-20T05:36:04;99666.69;;;18.36;100.00
43430;BME280;29028;43.234;27.896;2022-11-20T05:36:25;99657.94;;;18.34;100.00
43430;BME280;29028;43.234;27.896;2022-11-20T05:36:46;99659.28;;;18.32;100.00
43430;BME280;29028;43.234;27.896;2022-11-20T05:37:08;99663.28;;;18.29;100.00
43430;BME280;29028;43.234;27.896;2022-11-20T05:37:29;99668.50;;;18.31;100.00
43430;BME280;29028;43.234;27.896;2022-11-20T05:37:49;99664.19;;;18.35;100.00
43430;BME280;29028;43.234;27.896;2022-11-20T05:38:10;99667.75;;;18.35;100.00
43430;BME280;29028;43.234;27.896;2022-11-20T05:38:31;99663.16;;;18.36;99.94
43430;BME280;29028;43.234;27.896;2022-11-20T05:38:53;99668.31;;;18.37;100.00
43430;BME280;29028;43.234;27.896;2022-11-20T05:39:14;99670.19;;;18.32;100.00
43430;BME280;29028;43.234;27.896;2022-11-20T05:39:35;99669.09;;;18.33;100.00
43430;BME280;29028;43.234;27.896;2022-11-20T05:39:56;99676.19;;;18.34;100.00
43430;BME280;29028;43.234;27.896;2022-11-20T05:40:17;99670.25;;;18.37;100.00
43430;BME280;29028;43.234;27.896;2022-11-20T05:40:39;99676.44;;;18.32;100.00
43430;BME280;29028;43.234;27.896;2022-11-20T05:41:04;99672.38;;;18.35;100.00
43430;BME280;29028;43.234;27.896;2022-11-20T05:41:25;99673.69;;;18.32;100.00
43430;BME280;29028;43.234;27.896;2022-11-20T05:41:46;99678.75;;;18.40;100.00
43430;BME280;29028;43.234;27.896;2022-11-20T05:42:30;99669.72;;;18.40;99.65
43430;BME280;29028;43.234;27.896;2022-11-20T05:42:51;99678.19;;;18.38;99.86
43430;BME280;29028;43.234;27.896;2022-11-20T05:43:11;99680.63;;;18.40;99.69
43430;BME280;29028;43.234;27.896;2022-11-20T05:43:33;99678.56;;;18.47;99.78
43430;BME280;29028;43.234;27.896;2022-11-20T05:43:56;99677.72;;;18.46;99.69
43430;BME280;29028;43.234;27.896;2022-11-20T05:44:18;99678.75;;;18.40;99.46
43430;BME280;29028;43.234;27.896;2022-11-20T05:44:39;99672.38;;;18.35;99.68
43430;BME280;29028;43.234;27.896;2022-11-20T05:45:01;99676.25;;;18.39;100.00
43430;BME280;29028;43.234;27.896;2022-11-20T05:45:23;99678.66;;;18.35;100.00
43430;BME280;29028;43.234;27.896;2022-11-20T05:45:51;99676.31;;;18.44;99.67
43430;BME280;29028;43.234;27.896;2022-11-20T05:46:14;99674.50;;;18.49;99.46
43430;BME280;29028;43.234;27.896;2022-11-20T05:46:35;99687.31;;;18.49;99.17
43430;BME280;29028;43.234;27.896;2022-11-20T05:46:57;99687.63;;;18.52;99.00
43430;BME280;29028;43.234;27.896;2022-11-20T05:47:17;99684.56;;;18.49;99.00
43430;BME280;29028;43.234;27.896;2022-11-20T05:47:40;99685.06;;;18.46;99.27
43430;BME280;29028;43.234;27.896;2022-11-20T05:48:01;99675.50;;;18.43;99.09
43430;BME280;29028;43.234;27.896;2022-11-20T05:48:21;99678.50;;;18.42;99.34
43430;BME280;29028;43.234;27.896;2022-11-20T05:48:44;99680.94;;;18.43;99.63
43430;BME280;29028;43.234;27.896;2022-11-20T05:49:05;99679.53;;;18.41;99.84
43430;BME280;29028;43.234;27.896;2022-11-20T05:49:26;99682.88;;;18.43;99.69
43430;BME280;29028;43.234;27.896;2022-11-20T05:49:47;99684.13;;;18.35;99.82
43430;BME280;29028;43.234;27.896;2022-11-20T05:50:09;99695.41;;;18.44;99.83
43430;BME280;29028;43.234;27.896;2022-11-20T05:50:30;99675.75;;;18.42;99.11
43430;BME280;29028;43.234;27.896;2022-11-20T05:50:51;99676.38;;;18.49;98.94
43430;BME280;29028;43.234;27.896;2022-11-20T05:51:13;99680.69;;;18.45;99.16
43430;BME280;29028;43.234;27.896;2022-11-20T05:51:35;99673.59;;;18.44;98.91
43430;BME280;29028;43.234;27.896;2022-11-20T05:51:57;99673.03;;;18.42;99.33
43430;BME280;29028;43.234;27.896;2022-11-20T05:52:17;99685.66;;;18.48;99.36
43430;BME280;29028;43.234;27.896;2022-11-20T05:52:38;99681.53;;;18.45;99.23
43430;BME280;29028;43.234;27.896;2022-11-20T05:52:59;99682.88;;;18.43;99.58
43430;BME280;29028;43.234;27.896;2022-11-20T05:53:20;99682.09;;;18.47;99.54
43430;BME280;29028;43.234;27.896;2022-11-20T05:53:42;99673.66;;;18.49;99.12
43430;BME280;29028;43.234;27.896;2022-11-20T05:54:03;99677.53;;;18.53;99.07
43430;BME280;29028;43.234;27.896;2022-11-20T05:54:25;99679.13;;;18.49;98.93
43430;BME280;29028;43.234;27.896;2022-11-20T05:54:46;99683.41;;;18.45;99.09
43430;BME280;29028;43.234;27.896;2022-11-20T05:55:07;99683.66;;;18.43;99.32
43430;BME280;29028;43.234;27.896;2022-11-20T05:55:29;99674.94;;;18.41;99.17
43430;BME280;29028;43.234;27.896;2022-11-20T05:55:56;99676.50;;;18.37;99.18
43430;BME280;29028;43.234;27.896;2022-11-20T05:56:18;99684.25;;;18.45;99.10
43430;BME280;29028;43.234;27.896;2022-11-20T05:56:39;99679.06;;;18.44;99.57
43430;BME280;29028;43.234;27.896;2022-11-20T05:57:02;99667.84;;;18.40;99.29
43430;BME280;29028;43.234;27.896;2022-11-20T05:57:23;99682.94;;;18.48;99.24
43430;BME280;29028;43.234;27.896;2022-11-20T05:57:43;99672.75;;;18.43;99.25
43430;BME280;29028;43.234;27.896;2022-11-20T05:58:04;99677.97;;;18.45;99.30
43430;BME280;29028;43.234;27.896;2022-11-20T05:58:26;99677.91;;;18.40;99.42
43430;BME280;29028;43.234;27.896;2022-11-20T05:58:48;99677.81;;;18.35;99.49
43430;BME280;29028;43.234;27.896;2022-11-20T05:59:09;99671.81;;;18.33;99.68
43430;BME280;29028;43.234;27.896;2022-11-20T05:59:30;99671.56;;;18.34;99.71
43430;BME280;29028;43.234;27.896;2022-11-20T05:59:52;99675.44;;;18.38;99.99
43430;BME280;29028;43.234;27.896;2022-11-20T06:00:14;99677.66;;;18.41;99.66
43430;BME280;29028;43.234;27.896;2022-11-20T06:00:35;99677.09;;;18.39;99.53
43430;BME280;29028;43.234;27.896;2022-11-20T06:01:03;99678.28;;;18.48;99.40
43430;BME280;29028;43.234;27.896;2022-11-20T06:01:25;99673.34;;;18.45;99.43
43430;BME280;29028;43.234;27.896;2022-11-20T06:01:46;99673.34;;;18.45;99.29
43430;BME280;29028;43.234;27.896;2022-11-20T06:02:07;99672.75;;;18.43;99.24
43430;BME280;29028;43.234;27.896;2022-11-20T06:02:28;99677.66;;;18.41;99.26
43430;BME280;29028;43.234;27.896;2022-11-20T06:02:51;99682.53;;;18.39;99.43
43430;BME280;29028;43.234;27.896;2022-11-20T06:03:12;99683.63;;;18.38;99.40
43430;BME280;29028;43.234;27.896;2022-11-20T06:03:33;99677.34;;;18.38;99.82
43430;BME280;29028;43.234;27.896;2022-11-20T06:03:54;99689.19;;;18.48;99.24
43430;BME280;29028;43.234;27.896;2022-11-20T06:04:15;99684.81;;;18.47;99.04
43430;BME280;29028;43.234;27.896;2022-11-20T06:04:37;99677.72;;;18.46;98.83
43430;BME280;29028;43.234;27.896;2022-11-20T06:04:58;99685.66;;;18.48;98.93
43430;BME280;29028;43.234;27.896;2022-11-20T06:05:18;99682.72;;;18.54;98.93
43430;BME280;29028;43.234;27.896;2022-11-20T06:05:39;99687.38;;;18.54;98.75
43430;BME280;29028;43.234;27.896;2022-11-20T06:06:01;99682.16;;;18.52;98.58
43430;BME280;29028;43.234;27.896;2022-11-20T06:06:23;99678.94;;;18.55;98.39
43430;BME280;29028;43.234;27.896;2022-11-20T06:06:45;99682.16;;;18.52;98.65
43430;BME280;29028;43.234;27.896;2022-11-20T06:07:06;99678.28;;;18.48;98.52
43430;BME280;29028;43.234;27.896;2022-11-20T06:07:27;99675.56;;;18.48;98.64
43430;BME280;29028;43.234;27.896;2022-11-20T06:07:49;99687.13;;;18.55;98.75
43430;BME280;29028;43.234;27.896;2022-11-20T06:08:09;99681.66;;;18.55;98.60
43430;BME280;29028;43.234;27.896;2022-11-20T06:08:31;99684.72;;;18.59;98.72
43430;BME280;29028;43.234;27.896;2022-11-20T06:08:52;99681.72;;;18.60;98.63
43430;BME280;29028;43.234;27.896;2022-11-20T06:09:14;99683.63;;;18.60;98.12
43430;BME280;29028;43.234;27.896;2022-11-20T06:09:34;99682.78;;;18.59;98.30
43430;BME280;29028;43.234;27.896;2022-11-20T06:09:55;99692.88;;;18.59;98.40
43430;BME280;29028;43.234;27.896;2022-11-20T06:10:16;99689.06;;;18.60;98.25
43430;BME280;29028;43.234;27.896;2022-11-20T06:10:37;99689.25;;;18.53;98.11
43430;BME280;29028;43.234;27.896;2022-11-20T06:11:03;99690.34;;;18.52;98.39
43430;BME280;29028;43.234;27.896;2022-11-20T06:11:24;99684.41;;;18.55;98.14
43430;BME280;29028;43.234;27.896;2022-11-20T06:11:45;99697.75;;;18.57;98.22
43430;BME280;29028;43.234;27.896;2022-11-20T06:12:07;99701.38;;;18.62;97.77
43430;BME280;29028;43.234;27.896;2022-11-20T06:12:28;99695.69;;;18.64;97.48
43430;BME280;29028;43.234;27.896;2022-11-20T06:12:48;99689.63;;;18.62;97.79
43430;BME280;29028;43.234;27.896;2022-11-20T06:13:09;99691.03;;;18.64;97.64
43430;BME280;29028;43.234;27.896;2022-11-20T06:13:31;99686.72;;;18.68;97.56
43430;BME280;29028;43.234;27.896;2022-11-20T06:13:52;99686.47;;;18.70;97.04
43430;BME280;29028;43.234;27.896;2022-11-20T06:14:13;99680.19;;;18.69;97.29
43430;BME280;29028;43.234;27.896;2022-11-20T06:14:34;99684.31;;;18.72;97.20
43430;BME280;29028;43.234;27.896;2022-11-20T06:14:56;99688.97;;;18.71;97.31
43430;BME280;29028;43.234;27.896;2022-11-20T06:15:17;99682.91;;;18.69;97.00
43430;BME280;29028;43.234;27.896;2022-11-20T06:15:38;99684.69;;;18.80;96.91
43430;BME280;29028;43.234;27.896;2022-11-20T06:15:59;99693.88;;;18.74;96.91
43430;BME280;29028;43.234;27.896;2022-11-20T06:16:21;99690.28;;;18.69;96.69
43430;BME280;29028;43.234;27.896;2022-11-20T06:16:42;99683.22;;;18.73;96.98
43430;BME280;29028;43.234;27.896;2022-11-20T06:17:02;99676.19;;;18.77;96.52
43430;BME280;29028;43.234;27.896;2022-11-20T06:17:23;99676.75;;;18.79;96.51
43430;BME280;29028;43.234;27.896;2022-11-20T06:17:45;99678.91;;;18.77;96.50
43430;BME280;29028;43.234;27.896;2022-11-20T06:18:07;99686.84;;;18.78;96.68
43430;BME280;29028;43.234;27.896;2022-11-20T06:18:30;99658.91;;;18.66;96.76
43430;BME280;29028;43.234;27.896;2022-11-20T06:18:51;99684.69;;;18.80;96.66
43430;BME280;29028;43.234;27.896;2022-11-20T06:19:13;99687.66;;;18.79;96.73
43430;BME280;29028;43.234;27.896;2022-11-20T06:19:35;99676.97;;;18.72;96.89
43430;BME280;29028;43.234;27.896;2022-11-20T06:19:56;99678.13;;;18.81;96.41
43430;BME280;29028;43.234;27.896;2022-11-20T06:20:17;99680.94;;;18.86;96.01
43430;BME280;29028;43.234;27.896;2022-11-20T06:20:39;99688.38;;;18.91;96.06
43430;BME280;29028;43.234;27.896;2022-11-20T06:21:01;99693.31;;;18.94;95.74
43430;BME280;29028;43.234;27.896;2022-11-20T06:21:22;99685.66;;;18.91;95.72
43430;BME280;29028;43.234;27.896;2022-11-20T06:21:43;99690.25;;;18.90;95.93
43430;BME280;29028;43.234;27.896;2022-11-20T06:22:05;99686.13;;;18.88;96.06
43430;BME280;29028;43.234;27.896;2022-11-20T06:22:26;99691.84;;;18.86;96.00
43430;BME280;29028;43.234;27.896;2022-11-20T06:22:47;99690.91;;;18.76;96.23
43430;BME280;29028;43.234;27.896;2022-11-20T06:23:08;99693.94;;;18.79;96.20
43430;BME280;29028;43.234;27.896;2022-11-20T06:23:30;99692.31;;;18.78;96.43
43430;BME280;29028;43.234;27.896;2022-11-20T06:23:52;99697.50;;;18.80;96.30
43430;BME280;29028;43.234;27.896;2022-11-20T06:24:13;99692.63;;;18.82;96.28
43430;BME280;29028;43.234;27.896;2022-11-20T06:24:34;99689.53;;;18.73;96.62
43430;BME280;29028;43.234;27.896;2022-11-20T06:24:56;99690.84;;;18.71;96.63
43430;BME280;29028;43.234;27.896;2022-11-20T06:25:17;99692.19;;;18.68;96.53
43430;BME280;29028;43.234;27.896;2022-11-20T06:25:38;99693.34;;;18.72;96.66
43430;BME280;29028;43.234;27.896;2022-11-20T06:26:01;99704.19;;;18.67;96.84
43430;BME280;29028;43.234;27.896;2022-11-20T06:26:23;99697.94;;;18.72;96.77
43430;BME280;29028;43.234;27.896;2022-11-20T06:26:45;99699.59;;;18.73;96.57
43430;BME280;29028;43.234;27.896;2022-11-20T06:27:06;99697.69;;;18.73;96.55
43430;BME280;29028;43.234;27.896;2022-11-20T06:27:27;99697.22;;;18.76;96.39
43430;BME280;29028;43.234;27.896;2022-11-20T06:27:48;99695.84;;;18.79;96.54
43430;BME280;29028;43.234;27.896;2022-11-20T06:28:10;99699.94;;;18.76;96.49
43430;BME280;29028;43.234;27.896;2022-11-20T06:28:31;99695.34;;;18.82;96.26
43430;BME280;29028;43.234;27.896;2022-11-20T06:28:52;99693.47;;;18.82;96.06
43430;BME280;29028;43.234;27.896;2022-11-20T06:29:13;99693.09;;;18.74;96.17
43430;BME280;29028;43.234;27.896;2022-11-20T06:29:35;99695.28;;;18.77;96.31
43430;BME280;29028;43.234;27.896;2022-11-20T06:29:56;99694.47;;;18.76;96.28
43430;BME280;29028;43.234;27.896;2022-11-20T06:30:17;99702.00;;;18.69;96.51
43430;BME280;29028;43.234;27.896;2022-11-20T06:30:44;99693.28;;;18.67;96.64
43430;BME280;29028;43.234;27.896;2022-11-20T06:31:07;99690.84;;;18.71;96.74
43430;BME280;29028;43.234;27.896;2022-11-20T06:31:28;99697.63;;;18.68;96.62
43430;BME280;29028;43.234;27.896;2022-11-20T06:31:49;99684.00;;;18.68;96.76
43430;BME280;29028;43.234;27.896;2022-11-20T06:32:11;99703.94;;;18.69;96.97
43430;BME280;29028;43.234;27.896;2022-11-20T06:32:33;99705.63;;;18.75;96.69
43430;BME280;29028;43.234;27.896;2022-11-20T06:32:53;99698.56;;;18.79;96.13
43430;BME280;29028;43.234;27.896;2022-11-20T06:33:15;99702.91;;;18.75;96.50
43430;BME280;29028;43.234;27.896;2022-11-20T06:33:37;99696.13;;;18.77;96.27
43430;BME280;29028;43.234;27.896;2022-11-20T06:33:58;99694.47;;;18.76;96.45
43430;BME280;29028;43.234;27.896;2022-11-20T06:34:19;99687.94;;;18.77;96.13
43430;BME280;29028;43.234;27.896;2022-11-20T06:34:40;99690.91;;;18.76;96.53
43430;BME280;29028;43.234;27.896;2022-11-20T06:35:02;99693.66;;;18.76;96.65
43430;BME280;29028;43.234;27.896;2022-11-20T06:35:23;99682.16;;;18.74;96.39
43430;BME280;29028;43.234;27.896;2022-11-20T06:35:44;99683.28;;;18.78;96.40
43430;BME280;29028;43.234;27.896;2022-11-20T06:36:05;99692.88;;;18.80;96.18
43430;BME280;29028;43.234;27.896;2022-11-20T06:36:26;99696.81;;;18.89;95.96
43430;BME280;29028;43.234;27.896;2022-11-20T06:36:48;99689.44;;;18.90;95.76
43430;BME280;29028;43.234;27.896;2022-11-20T06:37:09;99690.63;;;18.99;95.87
43430;BME280;29028;43.234;27.896;2022-11-20T06:37:30;99691.53;;;19.04;95.50
43430;BME280;29028;43.234;27.896;2022-11-20T06:37:51;99686.56;;;19.01;95.42
43430;BME280;29028;43.234;27.896;2022-11-20T06:38:13;99690.75;;;19.09;95.15
43430;BME280;29028;43.234;27.896;2022-11-20T06:38:34;99679.44;;;19.22;95.01
43430;BME280;29028;43.234;27.896;2022-11-20T06:38:55;99684.69;;;19.28;94.44
43430;BME280;29028;43.234;27.896;2022-11-20T06:39:16;99690.88;;;19.45;93.77
43430;BME280;29028;43.234;27.896;2022-11-20T06:39:38;99692.84;;;19.55;92.61
43430;BME280;29028;43.234;27.896;2022-11-20T06:39:59;99687.94;;;19.52;91.87
43430;BME280;29028;43.234;27.896;2022-11-20T06:40:20;99687.13;;;19.56;91.77
43430;BME280;29028;43.234;27.896;2022-11-20T06:40:41;99696.44;;;19.55;91.61
43430;BME280;29028;43.234;27.896;2022-11-20T06:41:04;99690.44;;;19.58;91.75
43430;BME280;29028;43.234;27.896;2022-11-20T06:41:25;99687.44;;;19.60;91.29
43430;BME280;29028;43.234;27.896;2022-11-20T06:41:46;99698.31;;;19.55;91.42
43430;BME280;29028;43.234;27.896;2022-11-20T06:42:07;99690.41;;;19.53;91.65
43430;BME280;29028;43.234;27.896;2022-11-20T06:42:29;99682.50;;;19.57;91.53
43430;BME280;29028;43.234;27.896;2022-11-20T06:42:50;99696.47;;;19.60;91.25
43430;BME280;29028;43.234;27.896;2022-11-20T06:43:11;99689.41;;;19.64;91.27
43430;BME280;29028;43.234;27.896;2022-11-20T06:43:32;99684.25;;;19.68;91.29
43430;BME280;29028;43.234;27.896;2022-11-20T06:43:52;99685.59;;;19.65;90.92
43430;BME280;29028;43.234;27.896;2022-11-20T06:44:14;99691.06;;;19.65;90.83
43430;BME280;29028;43.234;27.896;2022-11-20T06:44:35;99691.84;;;19.61;91.25
43430;BME280;29028;43.234;27.896;2022-11-20T06:44:56;99695.91;;;19.58;91.21
43430;BME280;29028;43.234;27.896;2022-11-20T06:45:17;99708.84;;;19.41;91.78
43430;BME280;29028;43.234;27.896;2022-11-20T06:45:40;99697.91;;;19.36;92.08
43430;BME280;29028;43.234;27.896;2022-11-20T06:46:01;99694.03;;;19.32;92.50
43430;BME280;29028;43.234;27.896;2022-11-20T06:46:22;99693.78;;;19.34;92.51
43430;BME280;29028;43.234;27.896;2022-11-20T06:46:43;99703.63;;;19.35;92.75
43430;BME280;29028;43.234;27.896;2022-11-20T06:47:04;99697.13;;;19.41;92.50
43430;BME280;29028;43.234;27.896;2022-11-20T06:47:26;99696.81;;;19.37;92.67
43430;BME280;29028;43.234;27.896;2022-11-20T06:47:47;99698.25;;;19.45;92.34
43430;BME280;29028;43.234;27.896;2022-11-20T06:48:08;99700.41;;;19.43;92.11
43430;BME280;29028;43.234;27.896;2022-11-20T06:48:31;99692.69;;;19.35;92.33
43430;BME280;29028;43.234;27.896;2022-11-20T06:48:53;99689.72;;;19.36;92.48
43430;BME280;29028;43.234;27.896;2022-11-20T06:49:14;99688.34;;;19.39;92.55
43430;BME280;29028;43.234;27.896;2022-11-20T06:49:35;99693.78;;;19.39;92.11
43430;BME280;29028;43.234;27.896;2022-11-20T06:49:57;99695.78;;;19.43;92.47
43430;BME280;29028;43.234;27.896;2022-11-20T06:50:19;99685.31;;;19.35;92.31
43430;BME280;29028;43.234;27.896;2022-11-20T06:50:40;99686.94;;;19.31;92.60
43430;BME280;29028;43.234;27.896;2022-11-20T06:51:03;99694.34;;;19.36;92.66
43430;BME280;29028;43.234;27.896;2022-11-20T06:51:24;99701.38;;;19.32;92.49
43430;BME280;29028;43.234;27.896;2022-11-20T06:51:46;99701.91;;;19.29;92.50
43430;BME280;29028;43.234;27.896;2022-11-20T06:52:07;99694.28;;;19.31;92.60
43430;BME280;29028;43.234;27.896;2022-11-20T06:52:29;99685.53;;;19.29;92.69
43430;BME280;29028;43.234;27.896;2022-11-20T06:52:50;99698.16;;;19.35;92.71
43430;BME280;29028;43.234;27.896;2022-11-20T06:53:17;99691.00;;;19.29;92.60
43430;BME280;29028;43.234;27.896;2022-11-20T06:53:38;99699.50;;;19.32;92.94
43430;BME280;29028;43.234;27.896;2022-11-20T06:54:00;99687.47;;;19.33;92.63